• Join FlightAware (Why Join?)
  • Login
  • US Flag 
11:18AM EDT


 

Airport Tracker/Info


-or-


 

Live Flight TrackerFlight Track Log ✈ CAV543 ✈ 01-May-2012 ✈ CYTH - CYYQ

Flight Track Log - Related Links

Times and Time Zones

All times are in EDT time to prevent confusion due to time zone crossing. See the CAV543 flight status page for this flight to view local times or setup timezone preferences in your user account.

Time Position Orientation Groundspeed Altitude Reporting Facility
EDT Latitude Longitude Course Direction KTS MPH feet Rate Location/Type
09:51AM 55.8667 -97.7869 208° Southwest  Level FlightAware Approximate
09:51AM 55.8167 -97.8333 29° Northeast 130 150 2,300  Level Winnipeg Center
09:52AM 55.8500 -97.8000 48° Northeast 150 173 3,600 1,260 Climbing Winnipeg Center
09:53AM 55.8833 -97.7333 11° North 160 184 4,900 1,260 Climbing Winnipeg Center
09:54AM 55.9333 -97.7167 48° Northeast 180 207 6,200 1,200 Climbing Winnipeg Center
09:55AM 55.9667 -97.6500 37° Northeast 190 219 7,400 1,260 Climbing Winnipeg Center
09:56AM 56.0167 -97.5833 40° Northeast 190 219 8,800 1,200 Climbing Winnipeg Center
09:57AM 56.0500 -97.5333 20° North 180 207 9,800 960 Climbing Winnipeg Center
09:58AM 56.1000 -97.5000 29° Northeast 190 219 10,800 1,080 Climbing Winnipeg Center
09:59AM 56.1500 -97.4500 37° Northeast 200 230 12,000 1,080 Climbing Winnipeg Center
10:00AM 56.2000 -97.3833 48° Northeast 200 230 13,000 1,140 Climbing Winnipeg Center
10:01AM 56.2333 -97.3167 29° Northeast 200 230 14,300 1,140 Climbing Winnipeg Center
10:02AM 56.2833 -97.2667 36° Northeast 210 242 15,300 1,080 Climbing Winnipeg Center
10:03AM 56.3333 -97.2000 29° Northeast 210 242 16,500 1,020 Climbing Winnipeg Center
10:04AM 56.3833 -97.1500 36° Northeast 210 242 17,400 960 Climbing Winnipeg Center
10:05AM 56.4333 -97.0833 36° Northeast 210 242 18,500 900 Climbing Winnipeg Center
10:06AM 56.4833 -97.0167 29° Northeast 210 242 19,300 780 Climbing Winnipeg Center
10:07AM 56.5333 -96.9667 36° Northeast 220 253 20,100 840 Climbing Winnipeg Center
10:08AM 56.5833 -96.9000 36° Northeast 220 253 21,000 420 Climbing Winnipeg Center
10:09AM 56.6333 -96.8333 34° Northeast 230 265 21,000  Level Winnipeg Center
10:10AM 56.7000 -96.7500 36° Northeast 260 299 21,000  Level Winnipeg Center
10:11AM 56.7500 -96.6833 34° Northeast 270 311 21,000  Level Winnipeg Center
10:12AM 56.8167 -96.6000 29° Northeast 270 311 21,000  Level Winnipeg Center
10:13AM 56.8833 -96.5333 39° Northeast 280 322 21,000  Level Winnipeg Center
10:14AM 56.9500 -96.4333 22° Northeast 280 322 21,000  Level Winnipeg Center
10:15AM 57.0167 -96.3833 47° Northeast 280 322 21,000  Level Winnipeg Center
10:16AM 57.0667 -96.2833 39° Northeast 280 322 21,000  Level Winnipeg Center
10:17AM 57.1333 -96.1833 22° Northeast 280 322 21,000  Level Winnipeg Center
10:18AM 57.2000 -96.1333 39° Northeast 280 322 21,000  Level Winnipeg Center
10:19AM 57.2667 -96.0333 28° Northeast 280 322 21,000  Level Winnipeg Center
10:20AM 57.3333 -95.9667 39° Northeast 280 322 21,000  Level Winnipeg Center
10:21AM 57.4000 -95.8667 34° Northeast 280 322 21,000  Level Winnipeg Center
10:22AM 57.4667 -95.7833 36° Northeast 280 322 21,000  Level Winnipeg Center
10:23AM 57.5167 -95.7167 39° Northeast 280 322 21,000  Level Winnipeg Center
10:24AM 57.5833 -95.6167 28° Northeast 280 322 21,000  Level Winnipeg Center
10:25AM 57.6500 -95.5500 39° Northeast 280 322 21,000  Level Winnipeg Center
10:26AM 57.7167 -95.4500 28° Northeast 280 322 21,000  Level Winnipeg Center
10:27AM 57.7667 -95.4000 39° Northeast 280 322 21,000  Level Winnipeg Center
10:28AM 57.8333 -95.3000 39° Northeast 270 311 21,000  Level Winnipeg Center
10:29AM 57.9000 -95.2000 28° Northeast 270 311 21,000  Level Winnipeg Center
10:30AM 57.9667 -95.1333 38° Northeast 280 322 21,000  Level Winnipeg Center
10:31AM 58.0333 -95.0333 35° Northeast 270 311 21,000  Level Winnipeg Center
10:32AM 58.0833 -94.9667 38° Northeast 270 311 21,000  Level Winnipeg Center
10:33AM 58.1500 -94.8667 28° Northeast 270 311 21,000 -840 Level Winnipeg Center
10:34AM 58.2167 -94.8000 37° Northeast 290 334 19,400 -1,620 Descending Winnipeg Center
10:42AM 58.5852 -94.2649 35° Northeast  Level FlightAware Approximate
10:43AM 58.6364 -94.1955 38° Northeast  Level FlightAware Approximate
10:44AM 58.6860 -94.1211 29° Northeast  Level FlightAware Approximate
10:45AM 58.7411 -94.0629 209° Southwest  Level Estimated
10:46AM 58.6860 -94.1213 38° Northeast  Level Estimated
10:47AM 58.7333 -94.0500 38° Northeast  Level FlightAware Approximate